Time;durP1;ratioP1;P1;durP2;ratioP2;P2;SDS_P1;SDS_P2;PMS_P1;PMS_P2;Temp;Humidity;BMP_temperature;BMP_pressure;BME280_temperature;BME280_humidity;BME280_pressure;Samples;Min_cycle;Max_cycle;Signal;HPM_P1;HPM_P2
2022/12/18 00:01:58;;;;;;;45.00;22.37;;;-1.40;99.90;;;;;;5053416;28;20197;-78
2022/12/18 00:04:26;;;;;;;50.40;21.83;;;-1.30;99.90;;;;;;5053564;28;20163;-77
2022/12/18 00:06:52;;;;;;;49.63;22.67;;;-1.20;99.90;;;;;;5053440;28;20166;-78
2022/12/18 00:09:18;;;;;;;52.33;22.60;;;-1.10;99.90;;;;;;5053590;28;20171;-80
2022/12/18 00:11:43;;;;;;;61.53;25.53;;;-1.20;99.90;;;;;;5053620;28;20602;-80
2022/12/18 00:14:11;;;;;;;46.80;23.47;;;-1.00;99.90;;;;;;5053834;28;20207;-79
2022/12/18 00:16:36;;;;;;;52.77;23.53;;;-1.00;99.90;;;;;;5053781;28;20195;-78
2022/12/18 00:19:04;;;;;;;53.00;23.07;;;-1.00;99.90;;;;;;5053999;28;20249;-78
2022/12/18 00:21:31;;;;;;;39.77;19.87;;;-0.90;99.90;;;;;;5051937;28;20195;-81
2022/12/18 00:23:57;;;;;;;54.37;23.90;;;-1.20;99.90;;;;;;5053617;28;20177;-77
2022/12/18 00:26:31;;;;;;;57.67;22.87;;;-1.00;99.90;;;;;;5053309;28;20171;-80
2022/12/18 00:29:06;;;;;;;46.97;22.10;;;-1.00;99.90;;;;;;5053565;28;20713;-77
2022/12/18 00:31:32;;;;;;;53.67;22.33;;;-1.20;99.90;;;;;;5053211;28;20209;-77
2022/12/18 00:33:57;;;;;;;49.67;22.43;;;-1.20;99.90;;;;;;5053338;28;20579;-78
2022/12/18 00:36:29;;;;;;;41.97;21.47;;;-1.00;99.90;;;;;;5051661;28;20171;-78
2022/12/18 00:38:56;;;;;;;50.53;21.10;;;-0.90;99.90;;;;;;5051732;28;20171;-80
2022/12/18 00:44:09;;;;;;;46.00;21.70;;;-0.80;99.90;;;;;;5053375;28;20174;-78
2022/12/18 00:46:34;;;;;;;51.83;23.30;;;-0.90;99.90;;;;;;5052977;28;20179;-79
2022/12/18 00:49:00;;;;;;;42.67;20.77;;;-0.80;99.90;;;;;;5051542;28;20159;-77
2022/12/18 00:51:26;;;;;;;44.17;20.77;;;-0.90;99.90;;;;;;5052586;28;20198;-78
2022/12/18 00:53:52;;;;;;;43.03;21.87;;;-1.10;99.90;;;;;;5052551;28;20198;-77
2022/12/18 00:56:17;;;;;;;35.67;19.83;;;-1.30;99.90;;;;;;5058854;28;20227;-79
2022/12/18 00:58:45;;;;;;;40.83;19.23;;;-1.10;99.90;;;;;;5058300;28;20210;-78
2022/12/18 01:01:10;;;;;;;39.30;19.60;;;-0.90;99.90;;;;;;5057161;28;20167;-78
2022/12/18 01:03:36;;;;;;;47.83;21.90;;;-0.90;99.90;;;;;;5061651;28;20182;-77
2022/12/18 01:06:09;;;;;;;43.23;20.37;;;-0.70;99.90;;;;;;5065115;28;20184;-77
2022/12/18 01:08:35;;;;;;;42.07;21.20;;;-0.70;99.90;;;;;;5056534;28;20190;-79
2022/12/18 01:11:13;;;;;;;45.50;20.63;;;-0.90;99.90;;;;;;5060652;28;20651;-78
2022/12/18 01:13:40;;;;;;;46.73;20.60;;;-1.10;99.90;;;;;;5050616;28;20218;-77
2022/12/18 01:16:07;;;;;;;42.50;22.20;;;-1.20;99.90;;;;;;5058573;28;20592;-78
2022/12/18 01:18:32;;;;;;;50.03;22.90;;;-1.10;99.90;;;;;;5056914;28;20225;-78
2022/12/18 01:20:58;;;;;;;47.57;21.50;;;-1.10;99.90;;;;;;5056635;28;20167;-82
2022/12/18 01:23:24;;;;;;;46.30;21.50;;;-1.40;99.90;;;;;;5058797;28;20166;-78
2022/12/18 01:25:49;;;;;;;46.50;20.43;;;-1.40;99.90;;;;;;5059782;28;20163;-80
2022/12/18 01:28:15;;;;;;;44.87;21.53;;;-1.60;99.90;;;;;;5057247;28;20171;-80
2022/12/18 01:30:40;;;;;;;43.00;20.43;;;-1.70;99.90;;;;;;5069898;28;20162;-78
2022/12/18 01:33:08;;;;;;;45.60;20.80;;;-1.60;99.90;;;;;;5073186;28;20539;-78
2022/12/18 01:35:43;;;;;;;42.07;19.50;;;-1.80;99.90;;;;;;5068015;28;20170;-78
2022/12/18 01:38:09;;;;;;;42.27;18.70;;;-1.80;99.90;;;;;;5063834;28;20159;-82
2022/12/18 01:40:35;;;;;;;49.63;20.03;;;-1.90;99.90;;;;;;5065058;28;20167;-83
2022/12/18 01:43:00;;;;;;;32.70;16.93;;;-2.00;99.90;;;;;;5067999;28;20187;-78
2022/12/18 01:45:32;;;;;;;38.63;17.47;;;-1.80;99.90;;;;;;5062223;28;20171;-78
2022/12/18 01:48:06;;;;;;;39.17;18.40;;;-1.60;99.90;;;;;;5063711;28;20175;-80
2022/12/18 01:50:39;;;;;;;44.10;18.33;;;-1.40;99.90;;;;;;5073038;28;20167;-79
2022/12/18 01:53:14;;;;;;;44.07;17.53;;;-1.40;99.90;;;;;;5069306;28;20231;-80
2022/12/18 01:55:54;;;;;;;36.23;16.83;;;-1.20;99.90;;;;;;5064711;28;20170;-82
2022/12/18 01:58:35;;;;;;;36.40;18.43;;;-1.40;99.90;;;;;;5065059;28;20179;-80
2022/12/18 02:01:02;;;;;;;37.00;17.40;;;-1.20;99.90;;;;;;5062519;28;20171;-78
2022/12/18 02:03:27;;;;;;;35.93;18.10;;;-1.30;99.90;;;;;;5049844;28;20702;-78
2022/12/18 02:06:18;;;;;;;34.40;17.70;;;-1.50;99.90;;;;;;5068576;28;20179;-80
2022/12/18 02:08:53;;;;;;;45.40;18.57;;;-1.50;99.90;;;;;;5063822;28;20206;-80
2022/12/18 02:11:22;;;;;;;41.87;18.70;;;-1.60;99.90;;;;;;5061595;28;20194;-78
2022/12/18 02:14:17;;;;;;;43.00;17.83;;;-1.70;99.90;;;;;;5062866;28;20203;-79
2022/12/18 02:17:11;;;;;;;29.63;16.40;;;-1.60;99.90;;;;;;5048693;28;20171;-80
2022/12/18 02:19:48;;;;;;;35.20;17.07;;;-1.50;99.90;;;;;;5062671;28;20187;-80
2022/12/18 02:22:42;;;;;;;35.90;17.67;;;-1.50;99.90;;;;;;5062810;28;20198;-79
2022/12/18 02:25:36;;;;;;;32.03;17.17;;;-1.40;99.90;;;;;;5062259;28;20202;-80
2022/12/18 02:28:08;;;;;;;36.67;16.83;;;-1.50;99.90;;;;;;5067976;28;20245;-78
2022/12/18 02:30:36;;;;;;;35.63;17.63;;;-1.60;99.90;;;;;;5060057;28;20167;-78
2022/12/18 02:33:10;;;;;;;38.10;17.13;;;-1.90;99.90;;;;;;5061436;28;20301;-82
2022/12/18 02:35:41;;;;;;;32.07;15.73;;;-1.80;99.90;;;;;;5067907;28;20174;-79
2022/12/18 02:38:09;;;;;;;28.97;15.73;;;-1.60;99.90;;;;;;5065290;28;20179;-78
2022/12/18 02:40:37;;;;;;;31.60;15.27;;;-1.70;99.90;;;;;;5068207;28;20160;-77
2022/12/18 02:43:15;;;;;;;29.33;14.23;;;-1.80;99.90;;;;;;5060536;28;20647;-78
2022/12/18 02:45:48;;;;;;;37.07;14.57;;;-1.90;99.90;;;;;;5056245;28;20175;-82
2022/12/18 02:48:22;;;;;;;31.83;16.37;;;-2.00;99.90;;;;;;5066781;28;20163;-80
2022/12/18 02:51:19;;;;;;;30.07;15.40;;;-2.10;99.90;;;;;;5065789;28;20624;-79
2022/12/18 02:54:01;;;;;;;30.27;15.07;;;-1.90;99.90;;;;;;5063388;28;20199;-79
2022/12/18 02:56:35;;;;;;;27.10;15.27;;;-2.00;99.90;;;;;;5064222;28;20151;-78
2022/12/18 02:59:13;;;;;;;25.37;14.00;;;-2.00;99.90;;;;;;5064332;28;20235;-80
2022/12/18 03:02:00;;;;;;;31.73;15.00;;;-2.00;99.90;;;;;;5063370;28;20183;-80
2022/12/18 03:04:33;;;;;;;31.03;16.00;;;-2.30;99.90;;;;;;5063663;28;20198;-77
2022/12/18 03:07:05;;;;;;;29.53;15.30;;;-2.50;99.90;;;;;;5066350;28;20194;-79
2022/12/18 03:09:38;;;;;;;35.53;16.60;;;-2.50;99.90;;;;;;5063637;28;20172;-79
2022/12/18 03:12:25;;;;;;;25.90;14.77;;;-2.60;99.90;;;;;;5062568;28;20654;-79
2022/12/18 03:15:05;;;;;;;38.10;15.57;;;-2.50;99.90;;;;;;5059989;28;20224;-80
2022/12/18 03:17:33;;;;;;;30.33;14.20;;;-2.50;99.90;;;;;;5062193;28;20186;-79
2022/12/18 03:20:05;;;;;;;25.43;14.37;;;-2.50;99.90;;;;;;5062672;28;20217;-78
2022/12/18 03:22:44;;;;;;;32.57;15.00;;;-2.30;99.90;;;;;;5062491;28;20192;-78
2022/12/18 03:25:13;;;;;;;27.80;14.93;;;-2.30;99.90;;;;;;5057917;28;20174;-80
2022/12/18 03:27:44;;;;;;;26.90;13.90;;;-2.30;99.90;;;;;;5053642;28;20265;-83
2022/12/18 03:30:12;;;;;;;29.27;14.67;;;-2.40;99.90;;;;;;5053313;28;20186;-81
2022/12/18 03:32:54;;;;;;;28.90;15.40;;;-2.40;99.90;;;;;;5054074;28;20213;-80
2022/12/18 03:35:36;;;;;;;24.10;14.17;;;-2.50;99.90;;;;;;5052940;28;20203;-79
2022/12/18 03:38:02;;;;;;;31.10;15.17;;;-2.40;99.90;;;;;;5054196;28;20248;-78
2022/12/18 03:40:43;;;;;;;42.33;14.97;;;-2.40;99.90;;;;;;5054469;28;20691;-78
2022/12/18 03:43:34;;;;;;;23.57;13.67;;;-2.30;99.90;;;;;;5054471;28;20277;-80
2022/12/18 03:46:30;;;;;;;27.97;13.83;;;-2.30;99.90;;;;;;5054186;28;20175;-79
2022/12/18 03:49:06;;;;;;;32.83;15.33;;;-2.30;99.90;;;;;;5042222;28;20190;-81
2022/12/18 03:51:36;;;;;;;28.60;13.30;;;-2.30;99.90;;;;;;5054252;28;20282;-81
2022/12/18 03:54:04;;;;;;;25.20;12.57;;;-2.40;99.90;;;;;;5053900;28;20560;-82
2022/12/18 03:56:35;;;;;;;22.73;12.53;;;-2.50;99.90;;;;;;5052921;28;20634;-78
2022/12/18 03:59:02;;;;;;;26.97;14.10;;;-2.40;99.90;;;;;;5054027;28;20179;-79
2022/12/18 04:01:40;;;;;;;27.77;13.40;;;-2.40;99.90;;;;;;5053865;28;20225;-82
2022/12/18 04:04:08;;;;;;;29.07;14.90;;;-2.40;99.90;;;;;;5053744;28;20170;-80
2022/12/18 04:06:35;;;;;;;28.43;13.63;;;-2.50;99.90;;;;;;5053965;28;20186;-80
2022/12/18 04:09:01;;;;;;;28.60;13.93;;;-2.70;99.90;;;;;;5053546;28;20232;-79
2022/12/18 04:11:27;;;;;;;22.40;13.27;;;-2.80;99.90;;;;;;5053698;28;20194;-80
2022/12/18 04:13:57;;;;;;;28.20;13.33;;;-2.60;99.90;;;;;;5053564;28;20293;-80
2022/12/18 04:16:23;;;;;;;25.07;12.43;;;-2.50;99.90;;;;;;5053436;28;20169;-80
2022/12/18 04:18:49;;;;;;;26.17;12.37;;;-2.30;99.90;;;;;;5053335;28;20178;-80
2022/12/18 04:21:14;;;;;;;21.87;11.90;;;-2.10;99.90;;;;;;5053101;28;20179;-79
2022/12/18 04:23:40;;;;;;;22.50;12.50;;;-2.00;99.90;;;;;;5051858;28;20194;-79
2022/12/18 04:26:06;;;;;;;21.10;11.90;;;-2.10;99.90;;;;;;5052169;28;20686;-80
2022/12/18 04:28:31;;;;;;;22.00;12.37;;;-2.00;99.90;;;;;;5053431;28;20168;-80
2022/12/18 04:30:57;;;;;;;21.23;11.87;;;-1.90;99.90;;;;;;5053141;28;20163;-79
2022/12/18 04:33:22;;;;;;;21.87;12.37;;;-1.90;99.90;;;;;;5052792;28;20632;-80
2022/12/18 04:35:48;;;;;;;19.80;11.67;;;-1.80;99.90;;;;;;5053063;28;20671;-80
2022/12/18 04:38:14;;;;;;;22.07;11.43;;;-2.00;99.90;;;;;;5052903;28;20206;-81
2022/12/18 04:40:39;;;;;;;20.17;10.80;;;-2.00;99.90;;;;;;5053140;28;20186;-79
2022/12/18 04:43:05;;;;;;;20.20;11.03;;;-1.90;99.90;;;;;;5052893;28;20183;-80
2022/12/18 04:45:31;;;;;;;21.17;11.37;;;-1.90;99.90;;;;;;5052508;28;20167;-80
2022/12/18 04:47:58;;;;;;;18.57;11.33;;;-1.80;99.90;;;;;;5051300;28;20166;-79
2022/12/18 04:50:24;;;;;;;16.87;10.90;;;-1.80;99.90;;;;;;5053270;28;20171;-78
2022/12/18 04:52:49;;;;;;;24.73;11.97;;;-1.80;99.90;;;;;;5050932;28;20855;-79
2022/12/18 04:55:15;;;;;;;20.23;11.43;;;-1.60;99.90;;;;;;5052816;28;20221;-79
2022/12/18 04:57:41;;;;;;;24.37;12.10;;;-1.50;99.90;;;;;;5052797;28;20163;-78
2022/12/18 05:00:07;;;;;;;21.47;12.20;;;-1.50;99.90;;;;;;5051608;28;20478;-79
2022/12/18 05:02:33;;;;;;;23.77;11.63;;;-1.50;99.90;;;;;;5052484;28;20191;-80
2022/12/18 05:04:58;;;;;;;17.70;10.63;;;-1.70;99.90;;;;;;5051048;28;20181;-80
2022/12/18 05:07:24;;;;;;;21.03;10.63;;;-1.80;99.90;;;;;;5052589;28;20164;-79
2022/12/18 05:09:49;;;;;;;21.80;11.20;;;-2.00;99.90;;;;;;5052544;28;20210;-80
2022/12/18 05:12:15;;;;;;;19.83;11.27;;;-2.10;99.90;;;;;;5052442;28;20189;-80
2022/12/18 05:14:41;;;;;;;22.03;10.53;;;-2.00;99.90;;;;;;5052368;28;20167;-79
2022/12/18 05:17:07;;;;;;;16.03;10.47;;;-1.80;99.90;;;;;;5052433;28;20190;-78
2022/12/18 05:19:32;;;;;;;16.93;10.47;;;-1.80;99.90;;;;;;5052079;28;20163;-77
2022/12/18 05:21:58;;;;;;;21.30;11.27;;;-1.60;99.90;;;;;;5050754;28;20206;-78
2022/12/18 05:24:23;;;;;;;17.50;10.47;;;-1.80;99.90;;;;;;5053097;28;20178;-78
2022/12/18 05:26:49;;;;;;;16.50;10.27;;;-1.80;99.90;;;;;;5066253;28;20167;-80
2022/12/18 05:29:18;;;;;;;22.77;10.90;;;-1.80;99.90;;;;;;5067092;28;20171;-78
2022/12/18 05:31:43;;;;;;;18.87;9.47;;;-1.90;99.90;;;;;;5061954;28;20187;-78
2022/12/18 05:34:16;;;;;;;18.33;9.87;;;-2.00;99.90;;;;;;5061245;28;20298;-78
2022/12/18 05:36:42;;;;;;;18.27;11.20;;;-2.00;99.90;;;;;;5069231;28;20170;-79
2022/12/18 05:39:08;;;;;;;17.33;10.23;;;-1.90;99.90;;;;;;5067005;28;20209;-78
2022/12/18 05:41:41;;;;;;;20.83;11.63;;;-1.80;99.90;;;;;;5064826;28;20191;-78
2022/12/18 05:44:07;;;;;;;17.30;10.83;;;-1.80;99.90;;;;;;5062409;28;20175;-78
2022/12/18 05:46:33;;;;;;;28.23;11.20;;;-1.70;99.90;;;;;;5059958;28;20187;-78
2022/12/18 05:49:01;;;;;;;21.50;10.70;;;-2.00;99.90;;;;;;5064467;28;20168;-78
2022/12/18 05:51:27;;;;;;;18.47;10.80;;;-2.10;99.90;;;;;;5059673;28;20293;-77
2022/12/18 05:53:54;;;;;;;15.93;10.33;;;-2.00;99.90;;;;;;5062716;28;20285;-77
2022/12/18 05:56:25;;;;;;;18.70;10.17;;;-2.30;99.90;;;;;;5062334;28;20167;-79
2022/12/18 05:58:54;;;;;;;17.63;10.10;;;-2.10;99.90;;;;;;5065305;28;20171;-79
2022/12/18 06:01:26;;;;;;;18.53;10.90;;;-2.10;99.90;;;;;;5066268;28;20196;-78
2022/12/18 06:03:57;;;;;;;20.27;10.53;;;-2.10;99.90;;;;;;5070492;28;20156;-78
2022/12/18 06:06:27;;;;;;;16.57;9.07;;;-1.90;99.90;;;;;;5071748;28;20537;-78
2022/12/18 06:08:53;;;;;;;15.13;9.83;;;-1.90;99.90;;;;;;5058483;28;20182;-78
2022/12/18 06:11:22;;;;;;;18.77;9.80;;;-1.90;99.90;;;;;;5051836;28;20194;-78
2022/12/18 06:13:52;;;;;;;21.30;10.57;;;-2.00;99.90;;;;;;5051737;28;20222;-78
2022/12/18 06:16:18;;;;;;;19.87;10.80;;;-1.90;99.90;;;;;;5051869;28;20178;-77
2022/12/18 06:18:44;;;;;;;18.43;9.53;;;-1.80;99.90;;;;;;5051905;28;20163;-80
2022/12/18 06:21:10;;;;;;;25.17;10.03;;;-1.80;99.90;;;;;;5052124;28;20246;-79
2022/12/18 06:23:35;;;;;;;17.77;11.00;;;-1.90;99.90;;;;;;5051794;28;20524;-76
2022/12/18 06:26:09;;;;;;;20.87;9.97;;;-2.00;99.90;;;;;;5051795;28;20267;-77
2022/12/18 06:28:34;;;;;;;18.77;9.90;;;-2.10;99.90;;;;;;5051780;28;20233;-77
2022/12/18 06:31:00;;;;;;;17.17;9.93;;;-2.10;99.90;;;;;;5051758;28;20163;-81
2022/12/18 06:33:27;;;;;;;18.77;10.83;;;-2.20;99.90;;;;;;5055255;28;20755;-78
2022/12/18 06:35:53;;;;;;;22.00;10.93;;;-2.10;99.90;;;;;;5053819;28;20159;-76
2022/12/18 06:38:19;;;;;;;16.17;9.83;;;-2.00;99.90;;;;;;5055051;28;20163;-80
2022/12/18 06:40:44;;;;;;;21.83;9.63;;;-2.00;99.90;;;;;;5054016;28;20167;-79
2022/12/18 06:43:10;;;;;;;19.17;10.27;;;-1.80;99.90;;;;;;5053954;28;20195;-79
2022/12/18 06:45:36;;;;;;;17.63;9.87;;;-1.80;99.90;;;;;;5055130;28;20250;-80
2022/12/18 06:48:01;;;;;;;16.50;10.37;;;-1.70;99.90;;;;;;5055069;28;20163;-79
2022/12/18 06:50:27;;;;;;;23.00;9.33;;;-1.70;99.90;;;;;;5055024;28;20167;-77
2022/12/18 06:52:52;;;;;;;16.57;10.30;;;-2.30;99.90;;;;;;5054700;28;20211;-77
2022/12/18 06:55:18;;;;;;;19.60;9.87;;;-2.60;99.90;;;;;;5055161;28;20286;-77
2022/12/18 06:57:44;;;;;;;19.43;10.47;;;-2.60;99.90;;;;;;5055064;28;20210;-79
2022/12/18 07:00:10;;;;;;;14.67;9.50;;;-2.70;99.90;;;;;;5054979;28;20205;-77
2022/12/18 07:02:36;;;;;;;16.80;9.57;;;-2.60;99.90;;;;;;5054763;28;20179;-77
2022/12/18 07:05:02;;;;;;;19.37;10.17;;;-2.40;99.90;;;;;;5054985;28;20170;-78
2022/12/18 07:07:27;;;;;;;14.17;8.83;;;-2.30;99.90;;;;;;5054850;28;20704;-77
2022/12/18 07:09:53;;;;;;;14.63;8.60;;;-2.30;99.90;;;;;;5054793;28;20159;-78
2022/12/18 07:12:18;;;;;;;15.33;8.97;;;-2.30;99.90;;;;;;5054329;28;20237;-77
2022/12/18 07:14:44;;;;;;;16.87;9.40;;;-2.30;99.90;;;;;;5054392;28;20183;-77
2022/12/18 07:17:10;;;;;;;12.97;8.60;;;-2.30;99.90;;;;;;5054714;28;20168;-77
2022/12/18 07:19:35;;;;;;;13.70;8.73;;;-2.20;99.90;;;;;;5055048;28;20175;-78
2022/12/18 07:22:01;;;;;;;14.87;8.43;;;-2.40;99.90;;;;;;5054362;28;20564;-77
2022/12/18 07:24:28;;;;;;;13.57;8.70;;;-2.40;99.90;;;;;;5054863;28;20258;-77
2022/12/18 07:26:53;;;;;;;13.70;8.67;;;-2.40;99.90;;;;;;5054342;28;20217;-80
2022/12/18 07:29:19;;;;;;;12.80;8.20;;;-2.20;99.90;;;;;;5053968;28;20175;-77
2022/12/18 07:31:45;;;;;;;14.90;7.73;;;-2.30;99.90;;;;;;5054527;28;20248;-80
2022/12/18 07:34:12;;;;;;;19.73;8.87;;;-2.30;99.90;;;;;;5054615;28;20206;-81
2022/12/18 07:36:38;;;;;;;12.37;7.50;;;-2.40;99.90;;;;;;5054378;28;20171;-78
2022/12/18 07:39:04;;;;;;;15.07;7.87;;;-2.10;99.90;;;;;;5054083;28;20667;-81
2022/12/18 07:41:29;;;;;;;13.50;8.37;;;-2.30;99.90;;;;;;5053820;28;20187;-80
2022/12/18 07:43:55;;;;;;;13.97;8.37;;;-2.40;99.90;;;;;;5053218;28;20590;-79
2022/12/18 07:46:20;;;;;;;10.40;7.20;;;-2.30;99.90;;;;;;5054008;28;20175;-78
2022/12/18 07:48:46;;;;;;;11.63;7.23;;;-2.30;99.90;;;;;;5053765;28;20195;-80
2022/12/18 07:51:12;;;;;;;18.00;7.97;;;-2.20;99.90;;;;;;5053421;28;20266;-80
2022/12/18 07:53:38;;;;;;;17.80;8.70;;;-2.20;99.90;;;;;;5052384;28;20310;-80
2022/12/18 07:56:08;;;;;;;12.63;7.47;;;-2.20;99.90;;;;;;5052131;28;20179;-79
2022/12/18 07:58:35;;;;;;;14.53;8.27;;;-2.30;99.90;;;;;;5052023;28;20171;-80
2022/12/18 08:01:09;;;;;;;11.20;7.53;;;-2.30;99.90;;;;;;5053191;28;20168;-78
2022/12/18 08:03:35;;;;;;;9.63;7.37;;;-2.10;99.90;;;;;;5053490;28;20162;-78
2022/12/18 08:06:03;;;;;;;11.27;7.03;;;-2.00;99.90;;;;;;5053466;28;20194;-79
2022/12/18 08:08:29;;;;;;;10.77;7.63;;;-2.10;99.90;;;;;;5053746;28;20237;-79
2022/12/18 08:10:55;;;;;;;15.30;7.43;;;-2.10;99.90;;;;;;5053496;28;20243;-79
2022/12/18 08:13:20;;;;;;;14.00;6.77;;;-2.00;99.90;;;;;;5054141;28;20685;-79
2022/12/18 08:15:46;;;;;;;11.47;7.60;;;-2.10;99.90;;;;;;5054642;28;20654;-80
2022/12/18 08:18:12;;;;;;;11.20;7.70;;;-2.00;99.90;;;;;;5053156;28;20171;-79
2022/12/18 08:20:38;;;;;;;13.67;7.60;;;-1.80;99.90;;;;;;5052113;28;20170;-81
2022/12/18 08:23:03;;;;;;;9.10;7.57;;;-1.80;99.90;;;;;;5053036;28;20179;-80
2022/12/18 08:25:29;;;;;;;15.97;7.63;;;-1.80;99.90;;;;;;5053145;28;20166;-79
2022/12/18 08:27:56;;;;;;;10.03;6.80;;;-1.80;99.90;;;;;;5049732;28;20171;-81
2022/12/18 08:30:22;;;;;;;15.80;8.83;;;-1.60;99.90;;;;;;5046801;28;20203;-80
2022/12/18 08:32:50;;;;;;;15.67;7.10;;;-1.60;99.90;;;;;;5042560;28;20247;-79
2022/12/18 08:35:16;;;;;;;16.23;8.30;;;-1.70;99.90;;;;;;5052831;28;20636;-82
2022/12/18 08:37:41;;;;;;;14.33;8.07;;;-1.50;99.90;;;;;;5052691;28;20174;-79
2022/12/18 08:40:08;;;;;;;10.73;6.77;;;-1.70;99.90;;;;;;5052548;28;20740;-79
2022/12/18 08:45:17;;;;;;;10.97;7.87;;;-1.70;99.90;;;;;;5052609;28;20667;-80
2022/12/18 08:47:43;;;;;;;12.77;7.90;;;-1.80;99.90;;;;;;5052416;28;20159;-84
2022/12/18 08:50:10;;;;;;;17.73;8.43;;;-1.70;99.90;;;;;;5052413;28;20550;-80
2022/12/18 08:52:36;;;;;;;12.33;8.47;;;-1.60;99.90;;;;;;5052127;28;20340;-79
2022/12/18 08:55:02;;;;;;;9.20;8.17;;;-1.40;99.90;;;;;;5052185;28;20213;-80
2022/12/18 08:57:27;;;;;;;12.70;8.17;;;-1.20;99.90;;;;;;5052809;28;20186;-76
2022/12/18 08:59:53;;;;;;;12.77;7.33;;;-1.20;99.90;;;;;;5052548;28;20163;-78
2022/12/18 09:02:18;;;;;;;12.03;7.53;;;-1.10;99.90;;;;;;5052307;28;20201;-78
2022/12/18 09:04:47;;;;;;;12.97;7.93;;;-0.90;99.90;;;;;;5052207;28;20168;-76
2022/12/18 09:07:12;;;;;;;10.83;7.87;;;-0.70;99.90;;;;;;5050852;28;20172;-77
2022/12/18 09:09:38;;;;;;;10.63;7.43;;;-0.40;99.90;;;;;;5052575;28;20166;-77
2022/12/18 09:12:04;;;;;;;13.17;7.97;;;-0.20;99.90;;;;;;5052268;28;20578;-77
2022/12/18 09:14:29;;;;;;;12.90;9.10;;;-0.10;99.90;;;;;;5051994;28;20229;-77
2022/12/18 09:16:55;;;;;;;11.77;7.93;;;-0.20;99.90;;;;;;5052076;28;20233;-78
2022/12/18 09:19:20;;;;;;;9.07;6.73;;;-0.10;99.90;;;;;;5052430;28;20167;-77
2022/12/18 09:21:46;;;;;;;12.93;7.33;;;-0.20;99.90;;;;;;5041836;28;20196;-77
2022/12/18 09:24:15;;;;;;;9.80;6.40;;;-0.30;99.90;;;;;;5030974;28;20249;-77
2022/12/18 09:26:41;;;;;;;12.40;7.13;;;-0.30;99.90;;;;;;5032054;28;20164;-79
2022/12/18 09:29:07;;;;;;;10.10;7.07;;;-0.20;99.90;;;;;;5032109;28;20175;-79
2022/12/18 09:31:33;;;;;;;8.10;6.37;;;-0.10;99.90;;;;;;5031920;28;20180;-78
2022/12/18 09:33:59;;;;;;;9.30;6.60;;;0.00;99.90;;;;;;5032270;28;20211;-80
2022/12/18 09:36:25;;;;;;;10.07;7.60;;;0.20;99.90;;;;;;5032175;28;20530;-80
2022/12/18 09:38:51;;;;;;;12.73;7.60;;;0.00;99.90;;;;;;5031855;28;20290;-79
2022/12/18 09:41:36;;;;;;;13.77;7.23;;;0.00;99.90;;;;;;5032222;28;20176;-78
2022/12/18 09:44:35;;;;;;;11.80;7.13;;;0.20;99.90;;;;;;5032538;28;20164;-80
2022/12/18 09:47:12;;;;;;;9.30;7.10;;;0.20;99.90;;;;;;5019214;28;20179;-79
2022/12/18 09:49:43;;;;;;;10.43;7.13;;;0.20;99.90;;;;;;5032140;28;20167;-81
2022/12/18 09:52:15;;;;;;;21.13;6.67;;;0.30;99.90;;;;;;5031916;28;20207;-83
2022/12/18 09:54:44;;;;;;;17.27;7.80;;;0.30;99.90;;;;;;5031988;28;20633;-76
2022/12/18 09:57:17;;;;;;;12.30;7.30;;;0.40;99.90;;;;;;5031900;28;20180;-76
2022/12/18 09:59:49;;;;;;;11.88;7.85;;;0.60;99.90;;;;;;5031911;28;20156;-78
2022/12/18 10:02:22;;;;;;;14.45;8.20;;;0.70;99.90;;;;;;5031709;28;20274;-78
2022/12/18 10:05:15;;;;;;;13.57;8.13;;;0.90;99.90;;;;;;5031975;28;20168;-78
2022/12/18 10:07:50;;;;;;;12.65;8.00;;;1.10;99.90;;;;;;5032381;28;20238;-78
2022/12/18 10:10:39;;;;;;;12.70;7.93;;;1.30;99.90;;;;;;5035841;28;20175;-77
2022/12/18 10:13:25;;;;;;;13.27;7.72;;;1.30;99.90;;;;;;5035736;28;20207;-78
2022/12/18 10:16:00;;;;;;;15.60;8.18;;;1.40;99.90;;;;;;5035817;28;20667;-80
2022/12/18 10:19:03;;;;;;;9.23;7.35;;;1.40;99.90;;;;;;5035652;28;20198;-77
2022/12/18 10:22:03;;;;;;;9.38;7.45;;;1.50;99.90;;;;;;5035563;28;20554;-79
2022/12/18 10:24:35;;;;;;;9.77;7.43;;;1.50;99.90;;;;;;5028381;28;20184;-79
2022/12/18 10:27:17;;;;;;;13.57;8.13;;;1.60;99.90;;;;;;5033976;28;20187;-80
2022/12/18 10:29:45;;;;;;;15.88;9.15;;;1.80;99.90;;;;;;5035629;28;20321;-84
2022/12/18 10:32:18;;;;;;;10.65;8.25;;;1.80;99.90;;;;;;5034132;28;20195;-79
2022/12/18 10:34:48;;;;;;;13.57;8.27;;;1.70;99.90;;;;;;5035861;28;20201;-79
2022/12/18 10:37:19;;;;;;;14.85;8.45;;;1.60;99.90;;;;;;5033890;28;20171;-78
2022/12/18 10:39:46;;;;;;;10.20;8.18;;;1.60;99.90;;;;;;5035020;28;20199;-81
2022/12/18 10:42:19;;;;;;;15.65;8.55;;;1.80;99.90;;;;;;5034859;28;20188;-78
2022/12/18 10:44:45;;;;;;;11.50;7.55;;;1.90;99.90;;;;;;5035409;28;20266;-79
2022/12/18 10:47:15;;;;;;;14.50;9.15;;;1.80;99.90;;;;;;5033720;28;20657;-80
2022/12/18 10:49:50;;;;;;;10.55;7.93;;;2.00;99.90;;;;;;5034962;28;20164;-79
2022/12/18 10:52:24;;;;;;;12.60;8.70;;;1.90;99.90;;;;;;5035069;28;20207;-79
2022/12/18 10:54:58;;;;;;;21.77;8.63;;;1.90;99.90;;;;;;5034991;28;20656;-78
2022/12/18 10:57:37;;;;;;;17.70;8.70;;;2.20;99.90;;;;;;5035313;28;20561;-79
2022/12/18 11:00:23;;;;;;;17.83;9.02;;;2.50;99.90;;;;;;5035117;28;20202;-78
2022/12/18 11:02:50;;;;;;;12.30;8.88;;;2.30;99.90;;;;;;5034652;28;20219;-79
2022/12/18 11:05:30;;;;;;;15.63;9.70;;;2.40;99.90;;;;;;5034887;28;20156;-78
2022/12/18 11:07:57;;;;;;;15.23;9.75;;;2.60;99.90;;;;;;5034661;28;20173;-79
2022/12/18 11:10:33;;;;;;;21.13;9.82;;;2.50;99.90;;;;;;5034997;28;20168;-79
2022/12/18 11:13:22;;;;;;;15.65;9.85;;;2.80;99.90;;;;;;5034307;28;20265;-78
2022/12/18 11:15:48;;;;;;;20.77;11.07;;;3.10;99.90;;;;;;5034108;28;20172;-78
2022/12/18 11:18:25;;;;;;;13.55;10.10;;;3.20;99.90;;;;;;5033617;28;20172;-78
2022/12/18 11:21:05;;;;;;;19.67;10.25;;;3.20;99.90;;;;;;5034609;28;20172;-78
2022/12/18 11:23:30;;;;;;;16.60;10.25;;;3.40;99.90;;;;;;5034546;28;20172;-78
2022/12/18 11:26:02;;;;;;;23.38;12.57;;;3.50;99.90;;;;;;5036735;28;20217;-78
2022/12/18 11:28:35;;;;;;;24.35;11.88;;;3.40;99.90;;;;;;5036005;28;20256;-79
2022/12/18 11:31:20;;;;;;;31.75;16.17;;;3.50;99.90;;;;;;5033851;28;20265;-79
2022/12/18 11:33:50;;;;;;;19.33;11.25;;;3.60;99.90;;;;;;5035138;28;20303;-80
2022/12/18 11:36:17;;;;;;;19.55;11.18;;;3.60;99.90;;;;;;5036416;28;20188;-78
2022/12/18 11:38:44;;;;;;;18.50;10.90;;;3.70;99.90;;;;;;5037188;28;20172;-77
2022/12/18 11:42:08;;;;;;;13.38;9.98;;;3.70;99.90;;;;;;5035532;28;20704;-81
2022/12/18 11:44:14;;;;;;;18.20;10.18;;;3.80;99.90;;;;;;5035197;28;20200;-77
2022/12/18 11:46:50;;;;;;;13.45;9.55;;;3.80;99.90;;;;;;5035833;28;20168;-77
2022/12/18 11:49:31;;;;;;;16.67;8.60;;;3.90;99.90;;;;;;5017186;28;20195;-79
2022/12/18 11:52:16;;;;;;;18.52;9.23;;;3.90;99.90;;;;;;5033842;28;20660;-77
2022/12/18 11:54:41;;;;;;;15.27;9.23;;;3.70;99.90;;;;;;5034245;28;20180;-79
2022/12/18 11:57:13;;;;;;;21.98;10.27;;;3.30;99.90;;;;;;5034046;28;20163;-78
2022/12/18 11:59:55;;;;;;;14.63;8.80;;;3.10;99.90;;;;;;5033751;28;20179;-79
2022/12/18 12:02:47;;;;;;;15.05;9.10;;;3.10;99.90;;;;;;5033639;28;20234;-79
2022/12/18 12:05:19;;;;;;;14.90;9.90;;;3.30;99.90;;;;;;5032885;28;20544;-81
2022/12/18 12:08:15;;;;;;;19.50;9.50;;;3.40;99.90;;;;;;5034043;28;20248;-80
2022/12/18 12:10:55;;;;;;;13.07;9.43;;;3.30;99.90;;;;;;5034034;28;20184;-78
2022/12/18 12:13:23;;;;;;;17.63;10.27;;;3.60;99.90;;;;;;5034114;28;20211;-81
2022/12/18 12:16:07;;;;;;;22.60;9.38;;;3.30;99.90;;;;;;5034742;28;20568;-78
2022/12/18 12:18:40;;;;;;;15.50;10.13;;;3.10;99.90;;;;;;5033247;28;20203;-78
2022/12/18 12:21:39;;;;;;;16.63;9.80;;;3.20;99.90;;;;;;5033822;28;20238;-78
2022/12/18 12:24:49;;;;;;;14.23;9.50;;;3.10;99.90;;;;;;5033728;28;20251;-79
2022/12/18 12:27:36;;;;;;;21.88;10.75;;;3.10;99.90;;;;;;5028711;28;20241;-81
2022/12/18 12:30:16;;;;;;;21.63;10.90;;;3.10;99.90;;;;;;5033125;28;20213;-79
2022/12/18 12:32:59;;;;;;;31.77;11.13;;;3.20;99.90;;;;;;5040450;28;20214;-79
2022/12/18 12:36:04;;;;;;;14.88;9.55;;;3.60;99.90;;;;;;5053124;28;20241;-78
2022/12/18 12:38:42;;;;;;;15.82;9.70;;;3.50;99.90;;;;;;5010806;28;20180;-79
2022/12/18 12:43:12;;;;;;;22.67;11.70;;;3.60;99.90;;;;;;5011616;28;20215;-79
2022/12/18 12:44:04;;;;;;;16.33;10.02;;;3.60;99.90;;;;;;5040982;28;20190;-79
2022/12/18 12:46:32;;;;;;;21.98;10.95;;;3.60;99.90;;;;;;5052902;28;20194;-78
2022/12/18 12:49:02;;;;;;;28.40;10.52;;;3.70;99.90;;;;;;5052728;28;20258;-78
2022/12/18 12:51:34;;;;;;;17.00;9.68;;;3.70;99.90;;;;;;5052928;28;20202;-80
2022/12/18 12:54:03;;;;;;;23.95;10.48;;;3.50;99.90;;;;;;5052638;28;20210;-79
2022/12/18 12:56:50;;;;;;;15.48;9.98;;;3.60;99.90;;;;;;5052894;28;20254;-79
2022/12/18 12:59:25;;;;;;;21.17;10.75;;;3.70;99.90;;;;;;5053150;28;20680;-79